Time;durP1;ratioP1;P1;durP2;ratioP2;P2;SDS_P1;SDS_P2;PMS_P1;PMS_P2;Temp;Humidity;BMP_temperature;BMP_pressure;BME280_temperature;BME280_humidity;BME280_pressure;Samples;Min_cycle;Max_cycle;Signal;HPM_P1;HPM_P2
2023/08/22 00:00:31;;;;;;;6.53;5.60;;;22.60;65.90;;;;;;4969250;28;20466;-84
2023/08/22 00:02:57;;;;;;;5.90;5.30;;;22.50;73.20;;;;;;4970936;28;20443;-85
2023/08/22 00:05:23;;;;;;;11.20;6.40;;;22.50;84.50;;;;;;4978165;28;20445;-83
2023/08/22 00:07:49;;;;;;;7.83;5.70;;;22.40;95.20;;;;;;4972643;28;20975;-85
2023/08/22 00:10:15;;;;;;;7.70;5.27;;;22.40;99.90;;;;;;4976616;28;22716;-84
2023/08/22 00:12:42;;;;;;;10.23;5.50;;;22.30;99.90;;;;;;4969428;28;20333;-83
2023/08/22 00:15:10;;;;;;;11.27;6.17;;;22.30;99.90;;;;;;4962581;28;20505;-85
2023/08/22 00:17:42;;;;;;;9.17;5.87;;;22.20;99.90;;;;;;4970438;28;20499;-84
2023/08/22 00:20:09;;;;;;;11.60;5.43;;;22.10;99.90;;;;;;4968594;28;20434;-84
2023/08/22 00:22:36;;;;;;;11.43;5.93;;;22.10;99.90;;;;;;4972571;28;20433;-84
2023/08/22 00:25:02;;;;;;;13.27;6.50;;;22.10;99.90;;;;;;4967735;28;20602;-84
2023/08/22 00:27:28;;;;;;;11.30;6.47;;;22.00;99.90;;;;;;4967615;28;20461;-83
2023/08/22 00:29:54;;;;;;;9.33;5.70;;;22.00;99.90;;;;;;4972159;28;20445;-82
2023/08/22 00:32:20;;;;;;;8.03;5.37;;;22.00;99.90;;;;;;4975142;28;20990;-85
2023/08/22 00:34:46;;;;;;;11.73;6.63;;;21.90;99.90;;;;;;4971529;28;20511;-85
2023/08/22 00:37:11;;;;;;;6.67;5.17;;;21.90;99.90;;;;;;4972592;28;20182;-85
2023/08/22 00:39:37;;;;;;;10.47;6.73;;;21.90;99.90;;;;;;4965089;28;20865;-85
2023/08/22 00:42:02;;;;;;;8.37;6.03;;;21.80;99.90;;;;;;4969009;28;20290;-85
2023/08/22 00:44:28;;;;;;;9.20;5.50;;;21.70;99.90;;;;;;4969847;28;20188;-81
2023/08/22 00:46:53;;;;;;;7.20;5.90;;;21.70;99.90;;;;;;4968679;28;20194;-85
2023/08/22 00:49:20;;;;;;;13.60;6.47;;;21.60;99.90;;;;;;4960670;28;20193;-85
2023/08/22 00:51:45;;;;;;;7.50;6.20;;;21.60;99.90;;;;;;4969278;28;20581;-83
2023/08/22 00:54:12;;;;;;;6.50;5.70;;;21.60;99.90;;;;;;4973460;28;20445;-84
2023/08/22 00:56:37;;;;;;;8.07;5.50;;;21.50;99.90;;;;;;4972269;28;20194;-84
2023/08/22 00:59:04;;;;;;;10.77;5.87;;;21.50;99.90;;;;;;4966571;28;20441;-85
2023/08/22 01:01:30;;;;;;;10.13;6.23;;;21.50;99.90;;;;;;4972005;28;20196;-82
2023/08/22 01:03:56;;;;;;;8.13;5.30;;;21.50;99.90;;;;;;4973789;28;20985;-85
2023/08/22 01:06:45;;;;;;;12.63;5.50;;;21.50;99.90;;;;;;4977284;28;20445;-85
2023/08/22 01:09:29;;;;;;;6.13;4.80;;;21.40;99.90;;;;;;4969158;28;20185;-85
2023/08/22 01:12:03;;;;;;;7.30;5.10;;;21.40;99.90;;;;;;4972226;28;20476;-84
2023/08/22 01:14:32;;;;;;;6.40;5.20;;;21.40;99.90;;;;;;4976199;28;20472;-84
2023/08/22 01:16:58;;;;;;;8.60;5.47;;;21.40;99.90;;;;;;4976725;28;20447;-84
2023/08/22 01:19:25;;;;;;;7.40;5.70;;;21.30;99.90;;;;;;4966279;28;20447;-85
2023/08/22 01:21:51;;;;;;;8.53;5.60;;;21.30;99.90;;;;;;4972535;28;20894;-85
2023/08/22 01:24:17;;;;;;;7.83;5.80;;;21.30;99.90;;;;;;4964804;28;21012;-84
2023/08/22 01:26:45;;;;;;;10.03;6.07;;;21.20;99.90;;;;;;4978256;28;20440;-83
2023/08/22 01:29:14;;;;;;;10.10;5.97;;;21.20;99.90;;;;;;4972733;28;20204;-86
2023/08/22 01:31:50;;;;;;;9.10;5.53;;;21.20;99.90;;;;;;4977036;28;20487;-84
2023/08/22 01:34:30;;;;;;;6.80;6.10;;;21.10;99.90;;;;;;4976825;28;20516;-85
2023/08/22 01:36:59;;;;;;;11.50;6.47;;;21.10;99.90;;;;;;4975267;28;20495;-84
2023/08/22 01:39:27;;;;;;;11.27;5.80;;;21.00;1.00;;;;;;4974522;28;20461;-84
2023/08/22 01:41:55;;;;;;;11.73;6.80;;;20.90;1.00;;;;;;4967627;28;20518;-85
2023/08/22 01:44:20;;;;;;;8.60;5.93;;;20.90;1.00;;;;;;4970754;28;20510;-85
2023/08/22 01:46:46;;;;;;;7.90;5.83;;;20.90;1.00;;;;;;4961150;28;20870;-84
2023/08/22 01:49:11;;;;;;;9.43;5.70;;;20.90;1.00;;;;;;4975944;28;20240;-83
2023/08/22 01:51:37;;;;;;;10.10;5.20;;;20.90;1.00;;;;;;4975781;28;20236;-84
2023/08/22 01:54:02;;;;;;;10.40;6.10;;;20.90;1.00;;;;;;4966899;28;20267;-85
2023/08/22 01:56:28;;;;;;;7.03;5.27;;;20.90;1.00;;;;;;4965747;28;20222;-84
2023/08/22 01:58:54;;;;;;;8.97;5.57;;;20.90;1.00;;;;;;4970559;28;20195;-84
2023/08/22 02:01:20;;;;;;;10.40;6.07;;;20.80;1.00;;;;;;4971682;28;20207;-84
2023/08/22 02:03:46;;;;;;;6.57;5.10;;;20.80;1.00;;;;;;4970124;28;20180;-84
2023/08/22 02:06:11;;;;;;;9.57;5.33;;;20.80;1.00;;;;;;4961985;28;20443;-84
2023/08/22 02:08:39;;;;;;;6.37;5.13;;;20.80;1.00;;;;;;4963168;28;20465;-85
2023/08/22 02:11:05;;;;;;;7.70;5.00;;;20.70;1.00;;;;;;4971602;28;20216;-82
2023/08/22 02:13:30;;;;;;;7.73;5.40;;;20.70;1.00;;;;;;4968525;28;20941;-84
2023/08/22 02:15:55;;;;;;;9.90;5.70;;;20.60;1.00;;;;;;4966638;28;20295;-84
2023/08/22 02:18:21;;;;;;;8.70;5.93;;;20.60;1.00;;;;;;4962792;28;20183;-83
2023/08/22 02:20:51;;;;;;;8.00;5.70;;;20.50;1.00;;;;;;4957204;28;20203;-84
2023/08/22 02:23:16;;;;;;;6.53;5.13;;;20.50;1.00;;;;;;4971403;28;20203;-85
2023/08/22 02:25:42;;;;;;;6.87;5.40;;;20.40;1.00;;;;;;4974513;28;20528;-84
2023/08/22 02:28:07;;;;;;;7.50;5.40;;;20.40;1.00;;;;;;4969227;28;20196;-84
2023/08/22 02:30:33;;;;;;;6.60;5.33;;;20.40;76.90;;;;;;4969325;28;20877;-85
2023/08/22 02:32:59;;;;;;;12.67;6.53;;;20.30;99.90;;;;;;4966637;28;20560;-85
2023/08/22 02:35:25;;;;;;;9.53;6.07;;;20.30;99.90;;;;;;4973707;28;20462;-84
2023/08/22 02:37:51;;;;;;;11.13;7.47;;;20.30;99.90;;;;;;4976220;28;20183;-84
2023/08/22 02:40:16;;;;;;;11.13;7.27;;;20.20;99.90;;;;;;4972655;28;20207;-85
2023/08/22 02:42:42;;;;;;;11.13;7.23;;;20.20;99.90;;;;;;4974641;28;20451;-85
2023/08/22 02:45:08;;;;;;;8.67;7.80;;;20.10;1.00;;;;;;4980321;28;20568;-85
2023/08/22 02:47:33;;;;;;;9.23;7.10;;;20.10;1.00;;;;;;4975778;28;20202;-84
2023/08/22 02:49:59;;;;;;;8.63;7.30;;;20.10;1.00;;;;;;4970435;28;20257;-84
2023/08/22 02:52:25;;;;;;;8.63;6.33;;;20.10;1.00;;;;;;4966507;28;20282;-85
2023/08/22 02:54:51;;;;;;;13.63;7.80;;;20.10;51.60;;;;;;4971354;28;20219;-86
2023/08/22 02:57:17;;;;;;;8.07;7.23;;;20.10;99.90;;;;;;4976814;28;20268;-85
2023/08/22 02:59:42;;;;;;;16.23;8.17;;;20.00;99.90;;;;;;4977717;28;20439;-85
2023/08/22 03:02:08;;;;;;;12.53;8.63;;;20.00;99.90;;;;;;4970266;28;20278;-84
2023/08/22 03:04:36;;;;;;;16.63;8.20;;;20.00;99.90;;;;;;4962613;28;20270;-85
2023/08/22 03:07:03;;;;;;;14.07;7.90;;;19.90;1.00;;;;;;4979003;28;20226;-85
2023/08/22 03:09:29;;;;;;;13.17;11.40;;;19.90;1.00;;;;;;4974167;28;20513;-85
2023/08/22 03:11:54;;;;;;;11.77;9.50;;;19.90;1.00;;;;;;4972287;28;20469;-84
2023/08/22 03:14:20;;;;;;;13.27;8.70;;;19.90;1.00;;;;;;4973822;28;20190;-85
2023/08/22 03:16:45;;;;;;;11.00;9.17;;;19.80;1.00;;;;;;4971148;28;20201;-85
2023/08/22 03:19:11;;;;;;;9.90;8.70;;;19.80;72.70;;;;;;4970727;28;20556;-84
2023/08/22 03:21:36;;;;;;;10.77;9.00;;;19.80;99.90;;;;;;4975471;28;20904;-85
2023/08/22 03:24:02;;;;;;;14.27;10.70;;;19.80;99.90;;;;;;4974697;28;20189;-85
2023/08/22 03:26:28;;;;;;;10.17;8.97;;;19.80;99.90;;;;;;4970287;28;20270;-86
2023/08/22 03:28:53;;;;;;;19.17;10.10;;;19.80;1.00;;;;;;4965582;28;20845;-85
2023/08/22 03:31:22;;;;;;;10.93;9.93;;;19.70;1.00;;;;;;4973193;28;20217;-85
2023/08/22 03:33:47;;;;;;;14.73;10.20;;;19.70;1.00;;;;;;4971792;28;20193;-85
2023/08/22 03:36:13;;;;;;;13.70;9.83;;;19.60;99.90;;;;;;4967182;28;20592;-85
2023/08/22 03:38:41;;;;;;;14.50;9.93;;;19.60;99.90;;;;;;4964471;28;20196;-85
2023/08/22 03:41:07;;;;;;;11.50;10.30;;;19.60;99.90;;;;;;4960746;28;20214;-85
2023/08/22 03:43:32;;;;;;;12.53;11.30;;;19.60;99.90;;;;;;4974614;28;20515;-85
2023/08/22 03:45:58;;;;;;;12.97;9.77;;;19.50;1.00;;;;;;4968376;28;20242;-82
2023/08/22 03:48:23;;;;;;;16.83;11.50;;;19.50;1.00;;;;;;4969923;28;20192;-85
2023/08/22 03:50:49;;;;;;;13.33;10.90;;;19.40;99.90;;;;;;4971967;28;20590;-85
2023/08/22 03:53:15;;;;;;;17.10;11.50;;;19.40;99.90;;;;;;4974822;28;20273;-83
2023/08/22 03:55:43;;;;;;;15.27;10.40;;;19.40;99.90;;;;;;4974022;28;20756;-84
2023/08/22 03:58:09;;;;;;;14.37;11.43;;;19.40;99.90;;;;;;4972740;28;20484;-84
2023/08/22 04:00:35;;;;;;;15.90;11.43;;;19.40;1.00;;;;;;4966314;28;20498;-84
2023/08/22 04:03:00;;;;;;;13.80;11.20;;;19.30;1.00;;;;;;4972779;28;20533;-84
2023/08/22 04:05:26;;;;;;;13.30;10.90;;;19.30;1.00;;;;;;4970736;28;20184;-84
2023/08/22 04:07:52;;;;;;;14.03;12.53;;;19.20;1.00;;;;;;4973986;28;20195;-84
2023/08/22 04:10:18;;;;;;;15.20;11.60;;;19.20;35.60;;;;;;4965261;28;20208;-84
2023/08/22 04:12:44;;;;;;;16.40;13.00;;;19.20;99.90;;;;;;4972355;28;20823;-85
2023/08/22 04:15:11;;;;;;;19.23;12.97;;;19.20;99.90;;;;;;4978370;28;20482;-85
2023/08/22 04:17:38;;;;;;;15.57;12.30;;;19.10;99.90;;;;;;4977093;28;20187;-86
2023/08/22 04:20:07;;;;;;;14.00;12.40;;;19.10;1.00;;;;;;4977031;28;20442;-85
2023/08/22 04:22:32;;;;;;;18.73;12.73;;;19.10;1.00;;;;;;4971579;28;20881;-83
2023/08/22 04:24:58;;;;;;;14.30;12.90;;;19.00;1.00;;;;;;4969082;28;21048;-84
2023/08/22 04:27:23;;;;;;;16.20;12.63;;;19.00;1.00;;;;;;4982102;28;20192;-84
2023/08/22 04:29:49;;;;;;;13.93;12.47;;;19.10;1.00;;;;;;4974489;28;20202;-86
2023/08/22 04:32:14;;;;;;;16.77;13.53;;;19.00;1.00;;;;;;4966034;28;20209;-85
2023/08/22 04:34:40;;;;;;;14.57;12.70;;;19.10;1.00;;;;;;4963295;28;20227;-84
2023/08/22 04:37:05;;;;;;;20.57;13.40;;;19.00;1.00;;;;;;4976680;28;20190;-84
2023/08/22 04:39:31;;;;;;;13.50;12.10;;;19.00;1.00;;;;;;4973796;28;20199;-85
2023/08/22 04:41:56;;;;;;;15.60;12.50;;;19.00;90.90;;;;;;4976333;28;20235;-84
2023/08/22 04:44:22;;;;;;;12.90;11.57;;;19.00;90.20;;;;;;4975955;28;20691;-84
2023/08/22 04:46:47;;;;;;;15.30;12.67;;;19.00;44.70;;;;;;4966784;28;20258;-82
2023/08/22 04:49:13;;;;;;;13.87;12.33;;;19.00;91.70;;;;;;4976309;28;20186;-84
2023/08/22 04:51:38;;;;;;;17.90;11.80;;;19.10;97.70;;;;;;4977632;28;20382;-84
2023/08/22 04:54:04;;;;;;;13.97;12.40;;;19.20;61.30;;;;;;4978364;28;20181;-84
2023/08/22 04:56:30;;;;;;;14.13;12.63;;;19.20;1.00;;;;;;4980324;28;20630;-85
2023/08/22 04:58:55;;;;;;;22.53;13.77;;;19.30;1.00;;;;;;4977170;28;20195;-86
2023/08/22 05:01:21;;;;;;;14.30;12.20;;;19.30;1.00;;;;;;4976106;28;20337;-84
2023/08/22 05:03:47;;;;;;;15.37;12.47;;;19.40;1.00;;;;;;4974643;28;20727;-84
2023/08/22 05:06:12;;;;;;;15.17;13.67;;;19.40;99.90;;;;;;4974343;28;20303;-84
2023/08/22 05:08:38;;;;;;;13.40;11.70;;;19.40;99.90;;;;;;4974025;28;20478;-84
2023/08/22 05:11:03;;;;;;;14.50;12.97;;;19.50;99.90;;;;;;4971036;28;20206;-84
2023/08/22 05:13:29;;;;;;;14.20;12.70;;;19.60;1.00;;;;;;4966506;28;20187;-85
2023/08/22 05:15:54;;;;;;;17.70;13.50;;;19.80;1.00;;;;;;4968984;28;20212;-85
2023/08/22 05:18:20;;;;;;;14.37;13.07;;;19.90;99.90;;;;;;4965913;28;20187;-82
2023/08/22 05:20:49;;;;;;;16.80;14.40;;;20.10;1.00;;;;;;4974290;28;20211;-85
2023/08/22 05:23:15;;;;;;;17.93;14.50;;;20.20;99.90;;;;;;4969712;28;20187;-85
2023/08/22 05:25:41;;;;;;;14.40;12.67;;;20.30;1.00;;;;;;4970427;28;20532;-84
2023/08/22 05:28:07;;;;;;;13.50;12.10;;;20.40;99.90;;;;;;4973200;28;20612;-82
2023/08/22 05:30:36;;;;;;;15.20;13.37;;;20.50;99.90;;;;;;4963301;28;20231;-85
2023/08/22 05:33:01;;;;;;;15.60;14.10;;;20.50;1.00;;;;;;4973732;28;20456;-84
2023/08/22 05:35:27;;;;;;;17.17;15.33;;;20.50;1.00;;;;;;4973988;28;20507;-85
2023/08/22 05:37:52;;;;;;;18.30;14.50;;;20.50;1.00;;;;;;4974722;28;20266;-84
2023/08/22 05:40:18;;;;;;;17.47;15.77;;;20.60;99.90;;;;;;4974005;28;20868;-85
2023/08/22 05:42:43;;;;;;;16.17;14.53;;;20.60;99.90;;;;;;4973901;28;20187;-84
2023/08/22 05:45:09;;;;;;;17.60;15.80;;;20.60;99.90;;;;;;4975028;28;20188;-85
2023/08/22 05:47:35;;;;;;;17.87;16.07;;;20.70;99.90;;;;;;4967054;28;20181;-84
2023/08/22 05:50:00;;;;;;;18.80;15.40;;;20.90;62.30;;;;;;4964055;28;20187;-85
2023/08/22 05:52:26;;;;;;;17.97;13.60;;;22.50;99.90;;;;;;4972864;28;20235;-85
2023/08/22 05:54:51;;;;;;;16.17;14.47;;;22.80;99.90;;;;;;4975255;28;20240;-85
2023/08/22 05:57:17;;;;;;;13.37;12.00;;;24.20;99.90;;;;;;4982617;28;20211;-85
2023/08/22 05:59:42;;;;;;;12.63;11.30;;;27.70;1.00;;;;;;4977191;28;20215;-86
2023/08/22 06:02:08;;;;;;;14.43;11.20;;;30.60;1.00;;;;;;4974583;28;20211;-85
2023/08/22 06:04:33;;;;;;;13.10;10.10;;;33.70;1.00;;;;;;4970993;28;20183;-85
2023/08/22 06:06:59;;;;;;;10.70;9.30;;;36.50;1.00;;;;;;4973252;28;20196;-86
2023/08/22 06:09:25;;;;;;;11.57;8.40;;;38.70;1.00;;;;;;4970299;28;20199;-84
2023/08/22 06:11:50;;;;;;;10.73;8.57;;;40.80;1.00;;;;;;4978267;28;20782;-84
2023/08/22 06:14:16;;;;;;;11.20;9.10;;;42.20;1.00;;;;;;4978475;28;20625;-83
2023/08/22 06:16:41;;;;;;;10.77;9.17;;;42.30;1.00;;;;;;4979133;28;20614;-82
2023/08/22 06:19:07;;;;;;;11.43;10.27;;;39.60;1.00;;;;;;4980951;28;20192;-81
2023/08/22 06:21:33;;;;;;;11.73;10.57;;;36.90;1.00;;;;;;4977387;28;20244;-83
2023/08/22 06:23:58;;;;;;;15.47;11.03;;;34.60;1.00;;;;;;4975113;28;20176;-82
2023/08/22 06:26:24;;;;;;;12.23;11.03;;;32.50;1.00;;;;;;4974240;28;20210;-82
2023/08/22 06:28:50;;;;;;;14.43;11.10;;;31.00;1.00;;;;;;4979953;28;20729;-83
2023/08/22 06:31:16;;;;;;;11.57;10.40;;;31.60;1.00;;;;;;4979991;28;20685;-83
2023/08/22 06:33:41;;;;;;;10.90;9.93;;;34.10;1.00;;;;;;4973695;28;20448;-82
2023/08/22 06:36:07;;;;;;;12.10;10.00;;;37.30;1.00;;;;;;4980143;28;20211;-82
2023/08/22 06:38:33;;;;;;;10.90;9.80;;;38.60;1.00;;;;;;4973822;28;20193;-82
2023/08/22 06:41:04;;;;;;;12.50;8.93;;;40.80;1.00;;;;;;4972456;28;20455;-82
2023/08/22 06:43:29;;;;;;;10.70;9.60;;;40.20;1.00;;;;;;4967304;28;20208;-82
2023/08/22 06:45:58;;;;;;;11.53;10.43;;;39.40;1.00;;;;;;4964559;28;20999;-82
2023/08/22 06:48:23;;;;;;;12.17;10.90;;;38.20;1.00;;;;;;4969748;28;20208;-82
2023/08/22 06:50:49;;;;;;;11.30;10.20;;;36.90;1.00;;;;;;4970806;28;20469;-84
2023/08/22 06:53:15;;;;;;;15.40;11.47;;;35.90;1.00;;;;;;4975808;28;20214;-82
2023/08/22 06:55:41;;;;;;;14.40;11.80;;;34.80;1.00;;;;;;4976525;28;20305;-82
2023/08/22 06:58:09;;;;;;;11.93;10.93;;;34.00;1.00;;;;;;4976380;28;20204;-84
2023/08/22 07:00:34;;;;;;;12.13;10.30;;;35.50;1.00;;;;;;4970610;28;20459;-84
2023/08/22 07:03:00;;;;;;;11.80;10.70;;;39.90;1.00;;;;;;4975065;28;20446;-83
2023/08/22 07:05:25;;;;;;;14.17;10.90;;;40.90;1.00;;;;;;4973415;28;20181;-86
2023/08/22 07:07:51;;;;;;;12.53;11.33;;;40.00;1.00;;;;;;4974833;28;20196;-86
2023/08/22 07:10:16;;;;;;;15.93;13.70;;;38.60;1.00;;;;;;4971102;28;20223;-84
2023/08/22 07:12:42;;;;;;;14.20;12.87;;;37.30;1.00;;;;;;4977808;28;20542;-84
2023/08/22 07:15:08;;;;;;;17.93;15.30;;;36.50;1.00;;;;;;4977750;28;20208;-84
2023/08/22 07:17:35;;;;;;;15.10;13.63;;;35.70;1.00;;;;;;4975869;28;20216;-85
2023/08/22 07:20:00;;;;;;;17.03;13.93;;;34.90;1.00;;;;;;4971547;28;20475;-81
2023/08/22 07:22:26;;;;;;;14.50;12.53;;;34.80;1.00;;;;;;4977591;28;20502;-84
2023/08/22 07:24:51;;;;;;;15.77;14.27;;;35.40;1.00;;;;;;4979258;28;20207;-84
2023/08/22 07:27:17;;;;;;;16.20;14.60;;;35.60;1.00;;;;;;4982328;28;21810;-82
2023/08/22 07:29:45;;;;;;;21.23;15.53;;;35.40;1.00;;;;;;4969760;28;20189;-85
2023/08/22 07:32:11;;;;;;;13.80;12.30;;;37.20;1.00;;;;;;4974507;28;20689;-84
2023/08/22 07:34:36;;;;;;;15.23;11.83;;;39.60;1.00;;;;;;4974119;28;20443;-84
2023/08/22 07:37:02;;;;;;;11.33;10.00;;;43.30;1.00;;;;;;4976483;28;20187;-82
2023/08/22 07:39:28;;;;;;;10.77;9.77;;;46.50;1.00;;;;;;4975383;28;20188;-85
2023/08/22 07:41:54;;;;;;;10.63;9.53;;;48.60;1.00;;;;;;4973610;28;20465;-85
2023/08/22 07:44:19;;;;;;;10.50;9.33;;;50.60;1.00;;;;;;4968723;28;20184;-85
2023/08/22 07:46:45;;;;;;;11.90;9.40;;;50.40;1.00;;;;;;4968698;28;20808;-85
2023/08/22 07:49:11;;;;;;;9.23;7.60;;;51.40;1.00;;;;;;4973066;28;20687;-85
2023/08/22 07:51:36;;;;;;;11.20;9.20;;;50.50;99.90;;;;;;4971289;28;20230;-83
2023/08/22 07:54:03;;;;;;;8.47;7.60;;;49.20;99.90;;;;;;4969215;28;20184;-83
2023/08/22 07:56:29;;;;;;;9.10;7.70;;;50.40;99.90;;;;;;4970174;28;20246;-83
2023/08/22 07:58:54;;;;;;;9.20;8.30;;;50.50;99.90;;;;;;4973048;28;20191;-83
2023/08/22 08:01:20;;;;;;;10.67;8.50;;;47.40;99.90;;;;;;4979535;28;20212;-85
2023/08/22 08:03:45;;;;;;;13.27;7.43;;;45.20;99.90;;;;;;4978839;28;20227;-84
2023/08/22 08:06:11;;;;;;;8.67;7.80;;;44.70;99.90;;;;;;4978711;28;20661;-84
2023/08/22 08:08:36;;;;;;;12.67;7.60;;;45.30;99.90;;;;;;4977496;28;20192;-83
2023/08/22 08:11:02;;;;;;;17.93;8.10;;;44.80;99.90;;;;;;4975631;28;20239;-83
2023/08/22 08:13:27;;;;;;;12.50;7.50;;;43.30;99.90;;;;;;4973937;28;20895;-82
2023/08/22 08:15:53;;;;;;;13.03;7.97;;;42.10;99.90;;;;;;4975520;28;20276;-83
2023/08/22 08:18:19;;;;;;;9.97;7.53;;;42.70;99.90;;;;;;4979984;28;20637;-84
2023/08/22 08:20:44;;;;;;;8.37;7.23;;;43.30;99.90;;;;;;4972846;28;20204;-82
2023/08/22 08:23:10;;;;;;;9.73;8.10;;;43.90;99.90;;;;;;4974365;28;20259;-83
2023/08/22 08:25:36;;;;;;;10.07;7.77;;;44.70;99.90;;;;;;4970793;28;20180;-80
2023/08/22 08:28:02;;;;;;;9.00;6.97;;;45.80;99.90;;;;;;4973954;28;20608;-83
2023/08/22 08:30:28;;;;;;;6.33;5.60;;;47.20;99.90;;;;;;4976479;28;20505;-83
2023/08/22 08:32:53;;;;;;;6.23;5.50;;;48.10;99.90;;;;;;4980936;28;20851;-84
2023/08/22 08:35:19;;;;;;;6.33;5.20;;;49.20;99.90;;;;;;4973503;28;20219;-84
2023/08/22 08:37:46;;;;;;;6.40;4.97;;;50.40;99.90;;;;;;4969997;28;20190;-83
2023/08/22 08:40:12;;;;;;;9.67;5.00;;;51.30;99.90;;;;;;4988969;28;20206;-83
2023/08/22 08:42:38;;;;;;;5.43;4.53;;;51.50;99.90;;;;;;4975495;28;20239;-84
2023/08/22 08:45:07;;;;;;;6.10;5.10;;;49.40;99.90;;;;;;4981507;28;20183;-83
2023/08/22 08:47:33;;;;;;;7.40;5.50;;;48.30;99.90;;;;;;4977634;28;20198;-83
2023/08/22 08:50:05;;;;;;;7.80;5.50;;;48.20;99.90;;;;;;4978818;28;20449;-83
2023/08/22 08:52:31;;;;;;;6.03;5.13;;;48.80;99.90;;;;;;4975177;28;20439;-84
2023/08/22 08:54:58;;;;;;;8.80;5.47;;;48.90;99.90;;;;;;4976859;28;20470;-84
2023/08/22 08:57:24;;;;;;;6.30;5.70;;;48.20;99.90;;;;;;4981262;28;20202;-81
2023/08/22 08:59:49;;;;;;;15.20;7.40;;;47.40;99.90;;;;;;4977767;28;20443;-83
2023/08/22 09:02:16;;;;;;;9.63;6.60;;;46.40;99.90;;;;;;4979736;28;20288;-84
2023/08/22 09:04:42;;;;;;;10.73;7.90;;;45.40;99.90;;;;;;4979422;28;20177;-82
2023/08/22 09:07:08;;;;;;;8.17;5.90;;;45.30;99.90;;;;;;4990290;28;20419;-84
2023/08/22 09:09:35;;;;;;;6.60;5.90;;;45.80;99.90;;;;;;4974633;28;20443;-83
2023/08/22 09:12:05;;;;;;;6.73;5.97;;;44.90;99.90;;;;;;4979149;28;20192;-83
2023/08/22 09:14:31;;;;;;;5.40;4.90;;;45.00;99.90;;;;;;4976431;28;20514;-84
2023/08/22 09:17:01;;;;;;;11.40;5.83;;;45.90;99.90;;;;;;4980759;28;20424;-83
2023/08/22 09:19:33;;;;;;;9.50;5.70;;;46.70;99.90;;;;;;4980182;28;20803;-83
2023/08/22 09:22:00;;;;;;;10.20;6.20;;;46.00;99.90;;;;;;4980546;28;20937;-84
2023/08/22 09:24:29;;;;;;;7.53;6.07;;;45.50;99.90;;;;;;4984892;28;20435;-81
2023/08/22 09:26:55;;;;;;;7.53;6.10;;;45.70;99.90;;;;;;4987136;28;20433;-84
2023/08/22 09:29:33;;;;;;;10.20;6.07;;;45.60;99.90;;;;;;4986447;28;20471;-81
2023/08/22 09:32:01;;;;;;;10.27;5.80;;;44.80;99.90;;;;;;4968764;28;20212;-84
2023/08/22 09:34:27;;;;;;;8.57;6.37;;;43.60;99.90;;;;;;4973325;28;20471;-79
2023/08/22 09:36:56;;;;;;;15.53;7.40;;;42.90;99.90;;;;;;4972954;28;20435;-83
2023/08/22 09:39:22;;;;;;;9.10;6.53;;;43.40;99.90;;;;;;4969675;28;20444;-80
2023/08/22 09:41:54;;;;;;;8.77;6.57;;;43.20;99.90;;;;;;4974103;28;20447;-84
2023/08/22 09:44:26;;;;;;;6.83;6.10;;;44.50;99.90;;;;;;4974117;28;20466;-83
2023/08/22 09:46:54;;;;;;;8.23;5.70;;;46.00;99.90;;;;;;4968969;28;20432;-83
2023/08/22 09:49:20;;;;;;;7.00;5.77;;;46.40;99.90;;;;;;4971097;28;20443;-84
2023/08/22 09:51:53;;;;;;;6.80;5.50;;;47.10;99.90;;;;;;4979390;28;20497;-84
2023/08/22 09:54:19;;;;;;;6.00;5.40;;;46.90;99.90;;;;;;4977406;28;20470;-83
2023/08/22 09:56:46;;;;;;;6.40;5.30;;;46.00;99.90;;;;;;4974579;28;20562;-82
2023/08/22 09:59:13;;;;;;;7.80;6.50;;;46.20;99.90;;;;;;4973536;28;20744;-84
2023/08/22 10:01:39;;;;;;;7.13;6.20;;;46.20;99.90;;;;;;4975104;28;20818;-83
2023/08/22 10:04:06;;;;;;;7.00;5.83;;;46.60;99.90;;;;;;4965709;28;20498;-82
2023/08/22 10:06:34;;;;;;;8.27;7.30;;;46.10;99.90;;;;;;4972252;28;20431;-83
2023/08/22 10:09:07;;;;;;;9.50;7.77;;;45.50;99.90;;;;;;4967316;28;20966;-81
2023/08/22 10:11:35;;;;;;;8.87;7.97;;;44.70;99.90;;;;;;4990311;28;20468;-83
2023/08/22 10:14:01;;;;;;;8.33;7.60;;;43.60;99.90;;;;;;4970502;28;21133;-82
2023/08/22 10:16:30;;;;;;;9.53;8.10;;;42.50;99.90;;;;;;4974229;28;20521;-83
2023/08/22 10:19:00;;;;;;;10.70;8.40;;;41.30;99.90;;;;;;4970954;28;20195;-82
2023/08/22 10:21:26;;;;;;;9.93;9.03;;;40.70;99.90;;;;;;4969108;28;20490;-81
2023/08/22 10:23:51;;;;;;;10.70;9.40;;;40.30;99.90;;;;;;4970427;28;20443;-82
2023/08/22 10:26:21;;;;;;;12.33;9.93;;;40.00;99.90;;;;;;4971695;28;20196;-83
2023/08/22 10:29:12;;;;;;;9.13;8.23;;;39.40;99.90;;;;;;4970369;28;20196;-81
2023/08/22 10:31:59;;;;;;;10.63;9.73;;;39.30;99.90;;;;;;4973061;28;20513;-82
2023/08/22 10:34:34;;;;;;;11.97;8.97;;;38.90;99.90;;;;;;4968866;28;20447;-85
2023/08/22 10:37:01;;;;;;;10.70;7.93;;;38.40;99.90;;;;;;4968225;28;20424;-82
2023/08/22 10:39:42;;;;;;;10.17;7.80;;;37.80;99.90;;;;;;4966473;28;20451;-84
2023/08/22 10:42:13;;;;;;;10.20;5.47;;;37.50;99.90;;;;;;4969886;28;20458;-83
2023/08/22 10:44:39;;;;;;;14.00;7.07;;;37.90;99.90;;;;;;4968969;28;21016;-82
2023/08/22 10:47:19;;;;;;;9.40;5.90;;;39.60;99.90;;;;;;4967273;28;20440;-83
2023/08/22 10:49:51;;;;;;;7.47;5.90;;;41.50;99.90;;;;;;4972691;28;20435;-83
2023/08/22 10:52:17;;;;;;;9.27;4.97;;;41.90;99.90;;;;;;4973169;28;20464;-83
2023/08/22 10:55:27;;;;;;;7.33;4.67;;;41.60;99.90;;;;;;4973950;28;20439;-83
2023/08/22 10:57:54;;;;;;;10.00;6.30;;;40.90;99.90;;;;;;4956776;28;20509;-83
2023/08/22 11:00:23;;;;;;;7.80;4.13;;;39.90;99.90;;;;;;4971709;28;20510;-85
2023/08/22 11:02:56;;;;;;;7.47;3.83;;;39.10;99.90;;;;;;4978433;28;20434;-80
2023/08/22 11:05:22;;;;;;;5.87;3.57;;;38.30;99.90;;;;;;4979913;28;20447;-84
2023/08/22 11:07:49;;;;;;;7.70;3.87;;;37.90;99.90;;;;;;4977523;28;20438;-84
2023/08/22 11:10:16;;;;;;;8.33;4.23;;;37.50;99.90;;;;;;4975947;28;20247;-82
2023/08/22 11:12:43;;;;;;;8.50;4.23;;;37.30;99.90;;;;;;4990214;28;20464;-83
2023/08/22 11:15:10;;;;;;;4.83;3.10;;;37.30;99.90;;;;;;4978655;28;20997;-84
2023/08/22 11:17:40;;;;;;;9.00;3.20;;;37.40;99.90;;;;;;4977732;28;20442;-83
2023/08/22 11:20:10;;;;;;;5.90;3.70;;;37.30;99.90;;;;;;4977449;28;20945;-82
2023/08/22 11:22:36;;;;;;;5.63;3.70;;;37.40;99.90;;;;;;4977753;28;20873;-82
2023/08/22 11:25:01;;;;;;;7.00;3.63;;;37.60;99.90;;;;;;4978932;28;20522;-83
2023/08/22 11:27:27;;;;;;;8.00;4.23;;;37.50;99.90;;;;;;4974231;28;20565;-83
2023/08/22 11:29:53;;;;;;;5.93;5.00;;;37.60;99.90;;;;;;4975743;28;20188;-83
2023/08/22 11:32:22;;;;;;;8.93;4.93;;;37.70;99.90;;;;;;4976917;28;20214;-84
2023/08/22 11:35:11;;;;;;;10.50;4.70;;;37.50;99.90;;;;;;4978746;28;20439;-83
2023/08/22 11:37:38;;;;;;;7.43;4.50;;;37.20;99.90;;;;;;4974853;28;21040;-80
2023/08/22 11:40:09;;;;;;;6.43;4.20;;;37.90;99.90;;;;;;4977323;28;20428;-83
2023/08/22 11:42:36;;;;;;;7.67;4.80;;;39.50;99.90;;;;;;4975708;28;20435;-83
2023/08/22 11:45:08;;;;;;;10.60;5.80;;;40.00;99.90;;;;;;4976984;28;20427;-83
2023/08/22 11:47:53;;;;;;;8.90;5.70;;;39.90;99.90;;;;;;4976867;28;20440;-81
2023/08/22 11:50:25;;;;;;;10.97;5.23;;;39.80;99.90;;;;;;4978766;28;20434;-82
2023/08/22 11:52:54;;;;;;;7.57;4.67;;;39.60;99.90;;;;;;4979180;28;20423;-84
2023/08/22 11:55:28;;;;;;;10.00;5.70;;;40.20;99.90;;;;;;4979609;28;20473;-83
2023/08/22 11:57:59;;;;;;;8.63;5.43;;;40.20;99.90;;;;;;4978163;28;20468;-83
2023/08/22 12:00:30;;;;;;;10.97;5.23;;;40.00;99.90;;;;;;4979592;28;20475;-84
2023/08/22 12:02:57;;;;;;;18.47;5.83;;;39.90;99.90;;;;;;4972095;28;20451;-84
2023/08/22 12:05:30;;;;;;;8.30;6.63;;;40.00;99.90;;;;;;4981733;28;20435;-84
2023/08/22 12:08:14;;;;;;;9.07;5.83;;;40.00;99.90;;;;;;4979624;28;20799;-84
2023/08/22 12:10:49;;;;;;;6.90;5.37;;;39.60;99.90;;;;;;4984260;28;20459;-82
2023/08/22 12:13:17;;;;;;;9.73;5.73;;;39.20;99.90;;;;;;4989175;28;20470;-84
2023/08/22 12:15:44;;;;;;;5.87;4.37;;;39.20;99.90;;;;;;4982273;28;21007;-83
2023/08/22 12:18:10;;;;;;;6.40;4.57;;;39.40;99.90;;;;;;4970247;28;20459;-83
2023/08/22 12:20:38;;;;;;;12.73;5.63;;;40.20;99.90;;;;;;4983801;28;20463;-83
2023/08/22 12:23:05;;;;;;;9.53;5.27;;;40.20;99.90;;;;;;4974285;28;20452;-83
2023/08/22 12:25:32;;;;;;;8.43;4.90;;;40.00;99.90;;;;;;4974775;28;20435;-82
2023/08/22 12:27:57;;;;;;;7.50;4.90;;;40.60;99.90;;;;;;4973909;28;20451;-81
2023/08/22 12:30:23;;;;;;;8.53;4.60;;;41.30;99.90;;;;;;4970730;28;20475;-83
2023/08/22 12:32:48;;;;;;;10.13;5.47;;;41.20;99.90;;;;;;4972416;28;20188;-82
2023/08/22 12:35:14;;;;;;;7.77;4.80;;;41.70;99.90;;;;;;4967929;28;20270;-82
2023/08/22 12:37:40;;;;;;;8.07;5.27;;;41.70;99.90;;;;;;4969714;28;20599;-80
2023/08/22 12:40:10;;;;;;;11.20;5.63;;;41.70;99.90;;;;;;4968651;28;20304;-82